Ottawa Macdonald-Cartier International Airport
CYOW : now visible

Airfield :











YOU CAN JOIN US ON...

 
LOGIN :

Register | Disclaimer

   EN    FR    IT 

 









Legend :    VFR   Marginal VFR   IFR   Intensive IFR   Very Intensive IFR
Visi :
Ceiling :
>= 8 km
>= 3000ft
5 to 8 km
1000 to 3000 ft
1500m to 5 km
500 to 1000 ft
800 to 1500m
200 to 500 ft
< 800m
< 200 ft
Symbols :   Thunderstorms  Fog  Heavy snow  Heavy precipitations  Wind > 20 kt







- Airport Elevation : 374 ft
- IATA code : YOW


CYOW - Ottawa Macdonald-Cartier International

CURRENT METAR :
  • 210400Z 20005KT 15SM FEW210 16/14 A3015 RMK CI1 CI TR SLP212 DENSITY ALT 400FT

EXPIRED METARs :
  • 210300Z 22006KT 15SM FEW160 FEW210 18/15 A3016 RMK AC1CI1 AC TR SLP214 DENSITY ALT 500FT
  • 210200Z 21005KT 15SM SCT160 18/15 A3016 RMK AC4 SLP216 DENSITY ALT 600FT

TAF TAF CYOW
Valid from the 21 at 03:00 until the 22 at 00:00 UTC


210238Z 2103/2124 21005KT P6SM SCT160
FM210900 VRB03KT 6SM BR FEW002
PROB30 2109/2113 1/2SM FG BKN002
FM211300 VRB03KT P6SM FEW008
FM211500 VRB03KT P6SM FEW015
FM211800 20006KT P6SM FEW030 RMK NXT FCST BY 210600Z
No reported NOTAMs for that airfield.



MET'MAP, your aeronautical weather chart ! - Copyright ORBIFLY December 2007 - Disclaimer

ORBIFLY MET'MAP TEAM :

Programming & Development : Alexandra Zaïnal
Concept & Development : Baudouin d'Aumeries
Co-Development & Prog : Marc-Olivier Méhu
Technical & hardware support : Manuel Goepfert

Contact : metmap@orbifly.com




SOURCES & CREDITS :

   NOAA       Earth
Advisory